ADDS METAR Data INFO
IDs: Format: Raw Decoded Include TAF

Data at: 1333 UTC 25 Sep 2017

KDUX 251315Z AUTO 15005KT 10SM CLR 17/15 A2993 RMK AO2 T01710150
KDUX 251255Z AUTO 15006KT 10SM CLR 17/15 A2993 RMK AO2 T01680153 PWINO
KDUX 251235Z AUTO 18004KT 10SM SCT030 SCT041 17/16 A2993 RMK AO2 T01680155
KDUX 251215Z AUTO 15009KT 10SM -RA CLR 17/15 A2993 RMK AO2 T01690151
KDUX 251155Z AUTO 19012G20KT 7SM -RA BKN007 BKN013 18/16 A2992 RMK AO2 P0039 60039 70045 T01760156 10196 20173
KDUX 251135Z AUTO 19015KT 2SM RA BKN007 OVC012 18/17 A2992 RMK AO2 VIS 3/4V5 P0029 T01820165
KDUX 251115Z AUTO 17006KT 7SM RA BKN009 BKN013 OVC023 19/18 A2991 RMK AO2 T01850175
KDUX 251055Z AUTO 16010KT 10SM BKN011 BKN018 OVC025 19/18 A2991 RMK AO2 T01870175
KDUX 251035Z AUTO 17009KT 10SM OVC011 19/18 A2991 RMK AO2 T01900175
KDUX 251015Z AUTO 17008KT 10SM BKN011 BKN019 OVC029 19/18 A2991 RMK AO2 T01880175
KDUX 250955Z AUTO 17009G14KT 10SM BKN013 OVC029 19/18 A2991 RMK AO2 T01910176
KDUX 250935Z AUTO 16009KT 10SM BKN029 BKN035 19/18 A2991 RMK AO2 T01910175
KDUX 250915Z AUTO 16011KT 10SM BKN029 BKN043 BKN060 19/18 A2991 RMK AO2 T01910176
KDUX 250855Z AUTO 16012KT 10SM BKN031 OVC046 19/18 A2991 RMK AO2 T01900176
KDUX 250835Z AUTO 16010KT 10SM SCT012 OVC031 19/18 A2992 RMK AO2 T01900176
KDUX 250815Z AUTO 17011KT 10SM BKN014 BKN031 19/18 A2992 RMK AO2 T01900175
KDUX 250755Z AUTO 17013KT 10SM OVC014 19/18 A2992 RMK AO2 T01930175
KDUX 250735Z AUTO 16014KT 10SM SCT012 OVC017 19/18 A2991 RMK AO2 T01930175
KDUX 250715Z AUTO 17012KT 10SM BKN016 BKN022 OVC028 19/18 A2991 RMK AO2 T01920175
KDUX 250655Z AUTO 17016G20KT 10SM SCT014 OVC020 20/17 A2991 RMK AO2 T01950174
KDUX 250635Z AUTO 17014G22KT 10SM OVC018 20/17 A2991 RMK AO2 T01950172
KDUX 250615Z AUTO 17015G20KT 10SM BKN016 OVC021 20/18 A2992 RMK AO2 T01960175
KDUX 250555Z AUTO 17017KT 10SM OVC017 20/18 A2993 RMK AO2 T01960175 10232 20190 402530146
KDUX 250535Z AUTO 17014KT 10SM OVC018 20/18 A2993 RMK AO2 T01960175
KDUX 250515Z AUTO 16013KT 10SM OVC020 19/18 A2993 RMK AO2 T01940176
KDUX 250455Z AUTO 17012KT 10SM OVC022 20/18 A2993 RMK AO2 T01950176
KDUX 250435Z AUTO 16012KT 10SM BKN020 20/18 A2993 RMK AO2 T01950177
KDUX 250415Z AUTO 16011KT 10SM SCT010 SCT018 19/18 A2993 RMK AO2 T01920180
KDUX 250355Z AUTO 16011KT 7SM SCT008 BKN018 19/18 A2993 RMK AO2 T01910180
KDUX 250335Z AUTO 15010KT 7SM BKN008 BKN013 BKN018 19/18 A2993 RMK AO2 T01910181
KDUX 250315Z AUTO 15009KT 7SM BKN010 OVC017 19/18 A2993 RMK AO2 T01920181
KDUX 250255Z AUTO 14011KT 10SM SCT010 BKN017 19/18 A2992 RMK AO2 T01910180
KDUX 250235Z AUTO 14010KT 10SM SCT010 SCT015 19/18 A2992 RMK AO2 T01920180
KDUX 250215Z AUTO 14010KT 10SM CLR 19/18 A2991 RMK AO2 T01940180
KDUX 250155Z AUTO 14012KT 10SM SCT095 20/18 A2990 RMK AO2 T01980180
KDUX 250135Z AUTO 14011KT 10SM SCT026 SCT047 SCT060 20/18 A2989 RMK AO2 T02010180
KDUX 250115Z AUTO 14010KT 10SM SCT031 SCT039 SCT047 21/18 A2989 RMK AO2 T02050180
KDUX 250055Z AUTO 14011KT 10SM SCT041 21/18 A2988 RMK AO2 T02100178
KDUX 250035Z AUTO 15011KT 10SM SCT037 22/18 A2988 RMK AO2 T02170175
KDUX 250015Z AUTO 15014G18KT 10SM SCT037 22/18 A2988 RMK AO2 T02230176
KDUX 242355Z AUTO 16011G16KT 10SM CLR 23/18 A2987 RMK AO2 60006 T02330175 10253 20186
KDUX 242335Z AUTO 16013G18KT 10SM CLR 24/17 A2987 RMK AO2 T02410173
KDUX 242315Z AUTO 17013KT 10SM CLR 24/17 A2986 RMK AO2 T02440168
KDUX 242255Z AUTO 16015KT 10SM SCT035 25/17 A2986 RMK AO2 T02460172
KDUX 242235Z AUTO 16015KT 10SM SCT033 SCT042 SCT050 25/17 A2986 RMK AO2 T02480171
KDUX 242215Z AUTO 16017G22KT 10SM SCT033 BKN040 BKN050 25/17 A2986 RMK AO2 T02520173
KDUX 242155Z AUTO 17016KT 10SM SCT029 BKN035 BKN050 24/17 A2986 RMK AO2 T02380174
KDUX 242135Z AUTO 16014G18KT 10SM SCT029 SCT035 SCT048 25/18 A2987 RMK AO2 T02450181
KDUX 242115Z AUTO 18015KT 10SM CLR 24/18 A2987 RMK AO2 T02420178
KDUX 242055Z AUTO 16014KT 10SM SCT021 SCT029 23/18 A2988 RMK AO2 60006 T02330181
KDUX 242035Z AUTO 18014G17KT 10SM SCT016 SCT021 SCT033 23/19 A2988 RMK AO2 T02300185
KDUX 242015Z AUTO 17013G19KT 10SM SCT012 SCT019 BKN024 21/19 A2989 RMK AO2 T02120188
KDUX 241955Z AUTO 17016KT 10SM SCT007 SCT011 BKN017 21/19 A2990 RMK AO2 P0006 T02120193
KDUX 241935Z AUTO 17010KT 2 1/2SM RA BKN009 BKN013 OVC019 20/18 A2991 RMK AO2 P0005 T01950184
KDUX 241915Z AUTO 14010KT 10SM SCT005 BKN009 OVC021 21/19 A2991 RMK AO2 T02050189
KDUX 241855Z AUTO 17011KT 7SM SCT005 BKN009 BKN014 20/18 A2992 RMK AO2 T01970184
KDUX 241835Z AUTO 16011G14KT 5SM BR BKN009 OVC014 19/19 A2992 RMK AO2 T01940186
KDUX 241815Z AUTO 16012KT 10SM BKN009 OVC013 19/18 A2993 RMK AO2 T01920176
KDUX 241755Z AUTO 15010KT 4SM BR BKN007 OVC013 19/18 A2992 RMK AO2 T01870176 10192 20166
KDUX 241735Z AUTO 15011G15KT 4SM BR OVC010 19/17 A2993 RMK AO2 T01870173
KDUX 241715Z AUTO 14012G15KT 10SM BKN010 OVC014 19/17 A2993 RMK AO2 T01870171
KDUX 241655Z AUTO 15010KT 10SM BKN010 OVC014 19/17 A2993 RMK AO2 T01910173
KDUX 241635Z AUTO 16010KT 10SM BKN009 OVC014 18/17 A2993 RMK AO2 T01830169
KDUX 241615Z AUTO 15010KT 10SM OVC009 18/17 A2993 RMK AO2 T01800166
KDUX 241555Z AUTO 15011KT 10SM OVC012 18/17 A2993 RMK AO2 T01830165
KDUX 241535Z AUTO 15011KT 10SM OVC012 19/17 A2993 RMK AO2 T01850168
KDUX 241515Z AUTO 16009KT 10SM BKN014 BKN022 BKN029 18/17 A2993 RMK AO2 T01810165
KDUX 241455Z AUTO 16011G16KT 10SM BKN016 BKN030 OVC037 18/17 A2993 RMK AO2 T01800165 PWINO
KDUX 241435Z AUTO 15010KT 10SM OVC037 18/17 A2992 RMK AO2 T01780166 PWINO
KDUX 241415Z AUTO 14008KT 10SM SCT021 OVC032 18/17 A2991 RMK AO2 T01750166 PWINO
KDUX 241355Z AUTO 14006KT 7SM BKN019 OVC026 17/17 A2992 RMK AO2 T01710165 PWINO
KDUX 241335Z AUTO 12005KT 5SM SCT017 BKN024 17/17 A2991 RMK AO2 T01700165 PWINO
KDUX 241315Z AUTO 13004KT 5SM SCT018 OVC026 17/17 A2991 RMK AO2 T01700165 PWINO
KDUX 241255Z AUTO 12005KT 7SM OVC028 17/16 A2991 RMK AO2 T01690163 PWINO
KDUX 241235Z AUTO 13003KT 7SM SCT027 OVC032 17/16 A2990 RMK AO2 T01670161 PWINO
KDUX 241215Z AUTO 00000KT 10SM SCT025 BKN030 BKN037 17/16 A2990 RMK AO2 T01660160 PWINO
KDUX 241155Z AUTO 00000KT 10SM SCT008 SCT017 BKN033 17/16 A2990 RMK AO2 P0001 60017 70090 T01660160 10168 20146 PWINO
KDUX 241135Z AUTO 17005KT 10SM OVC008 17/16 A2990 RMK AO2 P0001 T01680161 PWINO
KDUX 241115Z AUTO 18003KT 10SM OVC008 17/16 A2988 RMK AO2 P0001 T01660160 PWINO
KDUX 241055Z AUTO 00000KT 10SM OVC010 16/16 A2989 RMK AO2 T01630160 PWINO
KDUX 241035Z AUTO 00000KT 10SM SCT010 BKN016 OVC040 16/16 A2989 RMK AO2 T01600155 PWINO
KDUX 241015Z AUTO 13004KT 10SM BKN040 BKN046 16/15 A2989 RMK AO2 T01570154 PWINO
KDUX 240955Z AUTO 12007KT 10SM CLR 16/15 A2988 RMK AO2 P0002 T01570153 PWINO
KDUX 240935Z AUTO 13006KT 10SM SCT005 BKN012 BKN017 16/15 A2988 RMK AO2 P0002 T01550151 PWINO
KDUX 240915Z AUTO 15005KT 7SM BKN007 OVC012 16/15 A2990 RMK AO2 P0002 T01550151 PWINO
KDUX 240855Z AUTO 18004KT 10SM OVC009 16/15 A2991 RMK AO2 P0001 60014 T01560152 PWINO
KDUX 240835Z AUTO 21005KT 10SM BKN005 OVC011 16/15 A2992 RMK AO2 P0001 T01550151 PWINO
KDUX 240815Z AUTO 13006KT 10SM SCT005 SCT011 SCT120 16/15 A2989 RMK AO2 T01550150 PWINO
KDUX 240755Z AUTO 12008KT 10SM SCT004 15/15 A2988 RMK AO2 P0001 T01530150
KDUX 240735Z AUTO 10009G19KT 10SM -RA SCT004 BKN010 BKN017 15/14 A2987 RMK AO2 P0001 T01470144
KDUX 240715Z AUTO 09012KT 10SM SCT002 SCT014 15/14 A2987 RMK AO2 T01470143
KDUX 240655Z AUTO 10007KT 10SM -DZ SCT008 SCT012 SCT021 15/14 A2990 RMK AO2 P0012 T01460142
KDUX 240635Z AUTO 10004KT 5SM RA SCT008 OVC013 15/14 A2991 RMK AO2 P0011 T01460142
KDUX 240615Z AUTO 13005KT 5SM RA OVC010 15/14 A2992 RMK AO2 P0005 T01460142
KDUX 240555Z AUTO 13006KT 5SM RA SCT006 BKN012 OVC018 15/14 A2993 RMK AO2 P0010 60072 T01460142 10246 20144 402760144
KDUX 240535Z AUTO 16003KT 7SM RA BKN008 BKN014 15/14 A2993 RMK AO2 P0006 T01450141
KDUX 240515Z AUTO 21004KT 5SM RA BKN008 BKN016 15/14 A2994 RMK AO2 P0002 T01450140
KDUX 240455Z AUTO 24010G17KT 4SM RA BKN006 BKN011 BKN019 14/14 A2996 RMK AO2 P0028 T01440140
KDUX 240435Z AUTO 23012G18KT 3SM -RA SCT008 SCT014 OVC046 18/18 A2993 RMK AO2 P0007 T01810175
KDUX 240415Z AUTO 00000KT 7SM -RA SCT008 SCT014 BKN046 18/17 A2987 RMK AO2 P0001 T01800173
KDUX 240355Z AUTO 00000KT 10SM -RA SCT006 SCT010 BKN046 18/17 A2987 RMK AO2 P0008 T01780170
KDUX 240335Z AUTO 00000KT 5SM RA SCT008 BKN013 BKN021 18/17 A2987 RMK AO2 P0004 T01800170
KDUX 240315Z AUTO 00000KT 7SM -RA SCT008 SCT013 SCT023 18/17 A2987 RMK AO2 P0002 T01760168
KDUX 240255Z AUTO 00000KT 10SM -RA SCT006 BKN010 18/17 A2989 RMK AO2 P0020 60026 T01750167
KDUX 240235Z AUTO 00000KT 1 3/4SM RA BKN006 OVC010 17/16 A2990 RMK AO2 P0017 T01710164
KDUX 240215Z AUTO 00000KT 7SM RA SCT006 SCT012 SCT032 17/17 A2990 RMK AO2 P0001 T01730165
KDUX 240155Z AUTO 07005KT 7SM RA SCT005 SCT011 BKN027 17/16 A2990 RMK AO2 P0002 T01740164
KDUX 240135Z AUTO 08004KT 10SM SCT035 SCT050 18/16 A2990 RMK AO2 T01750162